To NAV CANADA Home Page Login to a new session Search on AWWS site Feedback and Comments Disclaimer Vers la page française équivalente Tips FAQ What's new on the site To the Forecasts and Observations / NOTAM section To "File a Flight Plan" website Publications and other links Update of the User's profile FIC Telephone Numbers My Weather Data Folder Route Weather Data Regional Weather Data Local Weather Data To the Forecasts and Observations / NOTAM section
Request Generated 12/04/2016 at 22:20:46 UTC . Weather information available at that time is displayed.

METAR/TAF

MEDICINE HAT/AB    (show WxCam)

SPECI CYXH 042211Z 02011KT 3/4SM -SN BR VV011 M03/M04 A2955 RMK SN8
SLP040=
METAR CYXH 042200Z 02008KT 010V070 5/8SM -SN BR VV010 M02/M03 A2955
RMK SN8 /S02/ SLP038=
SPECI CYXH 042152Z 04006KT 5/8SM -SN BR VV009 M02/M03 A2955 RMK SN8
SLP037=
SPECI CYXH 042143Z CCA 05009KT 1/2SM SN BR VV010 M02/M03 A2954 RMK
SN8 SLP034=
SPECI CYXH 042143Z 05009KT 1/2SM SN VV010 M02/M03 A2954 RMK SN8
SLP034=
SPECI CYXH 042115Z 04006KT 3/4SM -SN BR OVC021 M02/M03 A2953 RMK
SN4SC4 SLP031=
METAR CYXH 042100Z 06006KT 1 1/2SM -SHSN OVC025 M01/M04 A2952 RMK SC8
VIS N-NE 21/2 SLP028=
SPECI CYXH 042022Z 04007KT 2 1/2SM -SHSN OVC025 M01/M03 A2952 RMK SC8
SLP025=
SPECI CYXH 042006Z 04009KT 10SM -SHSN BKN027 OVC045 M00/M04 A2952 RMK
SC7SC1 SLP027=
METAR CYXH 042000Z 04007KT 30SM BKN027 OVC045 M00/M04 A2953 RMK
SC6SC2 SLP028=

TAF AMD CYXH 042142Z 0421/0506 04006KT 3/4SM -SN BR VV015 TEMPO
0421/0501 6SM -SN OVC030
FM050100 33012G22KT 2SM -SN OVC015 TEMPO 0501/0504 P6SM -SN
SCT015 OVC030
FM050400 33012KT P6SM OVC012 TEMPO 0504/0506 5SM -SN OVC008
RMK NXT FCST BY 050000Z=
Your time UTC time
Weather data provided by Environment Canada and NAV CANADA